Time;durP1;ratioP1;P1;durP2;ratioP2;P2;SDS_P1;SDS_P2;PMS_P1;PMS_P2;Temp;Humidity;BMP_temperature;BMP_pressure;BME280_temperature;BME280_humidity;BME280_pressure;Samples;Min_cycle;Max_cycle;Signal;HPM_P1;HPM_P2
2022/07/06 00:02:19;;;;;;;2.55;0.82;;;;;;;24.69;36.59;102685.56;5035544;28;20025;-71
2022/07/06 00:04:45;;;;;;;1.80;0.73;;;;;;;24.55;36.69;102694.97;5048220;28;20365;-71
2022/07/06 00:07:10;;;;;;;1.85;0.80;;;;;;;24.42;36.92;102691.03;5047440;28;20021;-71
2022/07/06 00:09:35;;;;;;;3.53;0.80;;;;;;;24.71;36.21;102683.66;5040238;28;20028;-71
2022/07/06 00:12:01;;;;;;;1.15;0.70;;;;;;;24.98;35.95;102679.00;5048494;28;20059;-71
2022/07/06 00:14:26;;;;;;;3.42;0.90;;;;;;;24.94;35.52;102688.06;5061110;28;20024;-71
2022/07/06 00:16:51;;;;;;;5.53;1.92;;;;;;;24.48;36.64;102682.78;5045401;28;20116;-71
2022/07/06 00:19:17;;;;;;;2.38;0.70;;;;;;;24.78;36.32;102682.47;5066138;28;20032;-71
2022/07/06 00:21:42;;;;;;;1.67;0.73;;;;;;;24.87;36.08;102681.25;5039089;28;20417;-71
2022/07/06 00:24:08;;;;;;;6.22;1.00;;;;;;;24.80;36.08;102680.63;5050054;28;20531;-71
2022/07/06 00:26:33;;;;;;;1.38;0.82;;;;;;;24.85;36.57;102680.44;5070857;28;20028;-71
2022/07/06 00:28:59;;;;;;;3.42;1.15;;;;;;;24.82;36.18;102672.53;5051818;28;20111;-71
2022/07/06 00:31:24;;;;;;;2.10;0.88;;;;;;;24.87;36.21;102674.09;5052457;28;20115;-71
2022/07/06 00:33:50;;;;;;;5.53;1.02;;;;;;;25.04;35.77;102688.56;5033879;28;20040;-71
2022/07/06 00:36:15;;;;;;;1.25;1.02;;;;;;;24.77;36.60;102672.75;5035341;28;20028;-71
2022/07/06 00:38:41;;;;;;;2.97;1.13;;;;;;;24.97;36.06;102665.69;5035281;28;20032;-71
2022/07/06 00:41:06;;;;;;;2.13;1.00;;;;;;;24.81;36.39;102665.44;5043031;28;20024;-71
2022/07/06 00:43:48;;;;;;;3.50;1.13;;;;;;;25.00;35.98;102665.53;5066582;28;20522;-71
2022/07/06 00:46:14;;;;;;;2.72;0.85;;;;;;;24.46;36.76;102670.41;5053977;28;20115;-71
2022/07/06 00:48:39;;;;;;;3.03;1.15;;;;;;;24.48;36.90;102680.09;5048777;28;20461;-71
2022/07/06 00:51:05;;;;;;;1.48;1.00;;;;;;;24.50;37.18;102683.56;5053326;28;20021;-71
2022/07/06 00:53:30;;;;;;;5.55;0.98;;;;;;;24.60;36.67;102669.84;5035478;28;20024;-71
2022/07/06 00:55:56;;;;;;;3.47;0.95;;;;;;;24.31;37.46;102683.44;5033759;28;20024;-70
2022/07/06 00:58:21;;;;;;;2.10;1.15;;;;;;;24.60;36.87;102675.19;5033989;28;20388;-71
2022/07/06 01:00:46;;;;;;;2.42;0.90;;;;;;;24.64;36.82;102671.50;5062127;28;20064;-71
2022/07/06 01:03:12;;;;;;;4.20;0.77;;;;;;;24.73;36.46;102671.13;5054438;28;20499;-71
2022/07/06 01:05:37;;;;;;;1.60;0.68;;;;;;;24.41;37.34;102683.94;5053836;28;20012;-71
2022/07/06 01:08:03;;;;;;;2.30;1.00;;;;;;;24.30;37.16;102681.69;5044857;28;20111;-71
2022/07/06 01:10:28;;;;;;;5.63;0.90;;;;;;;24.32;37.64;102684.31;5047938;28;20114;-71
2022/07/06 01:12:56;;;;;;;1.95;0.60;;;;;;;24.33;37.88;102678.00;5054645;28;20037;-71
2022/07/06 01:15:23;;;;;;;2.05;0.80;;;;;;;24.31;37.85;102671.88;5051874;28;20036;-71
2022/07/06 01:17:49;;;;;;;2.47;1.00;;;;;;;24.65;36.68;102670.56;5066886;28;20025;-71
2022/07/06 01:20:25;;;;;;;3.88;0.70;;;;;;;24.46;37.74;102676.59;5070701;28;20040;-71
2022/07/06 01:22:52;;;;;;;3.45;0.88;;;;;;;24.83;36.81;102669.78;5068679;28;20701;-71
2022/07/06 01:25:19;;;;;;;6.05;1.55;;;;;;;24.45;37.35;102674.84;5053430;28;20028;-71
2022/07/06 01:27:45;;;;;;;1.83;0.93;;;;;;;24.39;37.63;102675.97;5034704;28;20035;-71
2022/07/06 01:30:18;;;;;;;3.35;0.90;;;;;;;24.29;37.60;102663.03;5032851;28;20115;-71
2022/07/06 01:32:45;;;;;;;2.63;0.90;;;;;;;24.60;36.96;102669.84;5033973;28;20033;-71
2022/07/06 01:35:12;;;;;;;2.83;1.20;;;;;;;24.50;37.12;102674.69;5039999;28;20412;-71
2022/07/06 01:37:38;;;;;;;2.67;0.80;;;;;;;24.31;37.84;102663.88;5054610;28;20016;-70
2022/07/06 01:40:06;;;;;;;4.30;0.88;;;;;;;24.13;37.80;102662.78;5034018;28;20543;-70
2022/07/06 01:42:31;;;;;;;3.97;1.15;;;;;;;24.44;37.67;102667.81;5051937;28;20041;-70
2022/07/06 01:44:57;;;;;;;2.15;0.80;;;;;;;24.42;37.32;102668.78;5044288;28;20507;-71
2022/07/06 01:47:22;;;;;;;3.33;0.90;;;;;;;24.74;36.68;102659.47;5032938;28;20025;-71
2022/07/06 01:49:48;;;;;;;3.25;0.82;;;;;;;24.29;37.54;102665.72;5043840;28;20021;-71
2022/07/06 01:52:14;;;;;;;4.47;0.90;;;;;;;24.37;37.63;102667.16;5051437;28;20123;-71
2022/07/06 01:54:40;;;;;;;2.38;0.82;;;;;;;24.56;37.29;102664.63;5034324;28;20029;-71
2022/07/06 01:57:06;;;;;;;5.15;0.85;;;;;;;24.50;37.22;102667.53;5066306;28;20020;-71
2022/07/06 01:59:31;;;;;;;1.90;0.70;;;;;;;24.48;37.48;102668.53;5047206;28;20511;-71
2022/07/06 02:01:56;;;;;;;1.67;0.68;;;;;;;24.46;37.46;102671.25;5041753;28;20090;-71
2022/07/06 02:04:22;;;;;;;3.08;0.80;;;;;;;24.59;37.01;102662.75;5033000;28;20020;-71
2022/07/06 02:06:47;;;;;;;1.42;0.80;;;;;;;24.28;37.91;102658.66;5055964;28;20625;-71
2022/07/06 02:09:13;;;;;;;2.28;0.75;;;;;;;24.24;38.30;102665.03;5048160;28;20054;-71
2022/07/06 02:11:38;;;;;;;3.65;0.95;;;;;;;24.05;38.24;102650.56;5033136;28;20028;-71
2022/07/06 02:14:03;;;;;;;2.78;0.80;;;;;;;24.18;37.82;102653.66;5034001;28;20033;-71
2022/07/06 02:16:29;;;;;;;4.43;0.90;;;;;;;24.53;37.22;102656.72;5035352;28;20020;-71
2022/07/06 02:18:54;;;;;;;1.83;0.90;;;;;;;24.19;38.11;102660.75;5070203;28;20040;-70
2022/07/06 02:21:20;;;;;;;2.53;0.70;;;;;;;24.24;37.44;102665.03;5053134;28;20020;-70
2022/07/06 02:23:45;;;;;;;2.38;0.85;;;;;;;24.13;37.85;102666.31;5040351;28;20020;-70
2022/07/06 02:26:10;;;;;;;3.45;0.70;;;;;;;24.07;37.78;102671.00;5050720;28;20029;-71
2022/07/06 02:28:36;;;;;;;2.88;0.70;;;;;;;24.42;37.28;102675.00;5049747;28;20016;-71
2022/07/06 02:31:01;;;;;;;2.88;0.77;;;;;;;24.02;38.18;102671.19;5068484;28;20028;-71
2022/07/06 02:33:26;;;;;;;1.25;0.73;;;;;;;24.19;37.64;102665.19;5050498;28;20027;-71
2022/07/06 02:35:52;;;;;;;1.88;0.80;;;;;;;24.21;37.54;102666.88;5048791;28;20472;-70
2022/07/06 02:38:17;;;;;;;5.47;0.68;;;;;;;24.07;38.10;102669.22;5051203;28;20024;-70
2022/07/06 02:40:42;;;;;;;3.00;0.60;;;;;;;23.77;38.13;102666.75;5036988;28;20067;-70
2022/07/06 02:43:08;;;;;;;2.47;0.60;;;;;;;24.22;37.25;102667.75;5057029;28;20120;-71
2022/07/06 02:45:33;;;;;;;4.72;0.90;;;;;;;23.79;38.13;102670.22;5081253;28;20675;-70
2022/07/06 02:47:58;;;;;;;2.00;0.77;;;;;;;23.75;38.47;102673.94;5093743;28;20027;-71
2022/07/06 02:50:25;;;;;;;4.68;1.17;;;;;;;23.74;38.29;102674.88;5079952;28;20037;-70
2022/07/06 02:52:50;;;;;;;2.78;0.90;;;;;;;23.57;38.79;102666.59;5080217;28;20397;-72
2022/07/06 02:55:16;;;;;;;1.35;1.08;;;;;;;23.51;39.00;102673.91;5081347;28;20035;-71
2022/07/06 02:57:41;;;;;;;2.70;0.90;;;;;;;23.40;39.10;102668.06;5073981;28;20016;-70
2022/07/06 03:00:09;;;;;;;1.48;0.70;;;;;;;23.57;38.86;102675.47;5083789;28;20472;-71
2022/07/06 03:02:34;;;;;;;4.80;1.00;;;;;;;23.99;38.05;102669.50;5087312;28;20443;-70
2022/07/06 03:05:00;;;;;;;4.72;1.73;;;;;;;23.88;38.13;102672.59;5094074;28;20525;-70
2022/07/06 03:07:25;;;;;;;1.80;0.70;;;;;;;24.07;37.94;102669.22;5082285;28;20511;-71
2022/07/06 03:09:51;;;;;;;3.38;0.85;;;;;;;24.03;37.34;102678.28;5082347;28;20483;-71
2022/07/06 03:12:16;;;;;;;7.15;1.05;;;;;;;24.02;37.74;102672.06;5088331;28;20031;-71
2022/07/06 03:14:42;;;;;;;3.80;0.82;;;;;;;24.17;37.12;102675.94;5083480;28;20051;-71
2022/07/06 03:17:08;;;;;;;2.83;1.38;;;;;;;23.66;37.94;102679.63;5093921;28;20479;-71
2022/07/06 03:19:33;;;;;;;10.77;1.25;;;;;;;23.50;39.11;102676.63;5085471;28;20494;-72
2022/07/06 03:21:58;;;;;;;3.85;0.98;;;;;;;23.57;38.53;102674.63;5091969;28;20506;-71
2022/07/06 03:24:24;;;;;;;10.52;1.98;;;;;;;23.70;38.75;102676.78;5093667;28;20035;-71
2022/07/06 03:26:49;;;;;;;3.53;0.90;;;;;;;23.52;38.90;102677.44;5078285;28;20127;-71
2022/07/06 03:29:14;;;;;;;1.30;0.63;;;;;;;23.91;38.16;102668.06;5090117;28;20504;-71
2022/07/06 03:31:40;;;;;;;1.30;0.70;;;;;;;23.68;38.29;102673.28;5075289;28;20498;-71
2022/07/06 03:34:06;;;;;;;0.70;0.50;;;;;;;23.45;38.64;102666.13;5072259;28;20047;-71
2022/07/06 03:36:31;;;;;;;2.13;0.60;;;;;;;22.29;40.58;102671.66;5072355;28;20017;-71
2022/07/06 03:38:56;;;;;;;4.78;0.73;;;;;;;22.85;40.11;102677.00;5074153;28;20032;-72
2022/07/06 03:41:22;;;;;;;2.50;0.75;;;;;;;23.12;39.29;102665.44;5091372;28;20038;-71
2022/07/06 03:43:47;;;;;;;1.08;0.60;;;;;;;23.37;38.96;102663.72;5089272;28;20081;-71
2022/07/06 03:46:12;;;;;;;3.22;1.02;;;;;;;22.89;39.80;102667.13;5093133;28;20027;-71
2022/07/06 03:48:38;;;;;;;3.45;0.60;;;;;;;23.62;38.64;102665.50;5085840;28;20024;-72
2022/07/06 03:51:03;;;;;;;1.35;0.70;;;;;;;24.00;37.90;102646.34;5072376;28;20028;-72
2022/07/06 03:53:28;;;;;;;3.92;1.55;;;;;;;23.88;38.07;102659.22;5084189;28;20403;-71
2022/07/06 03:58:38;;;;;;;0.68;0.55;;;;;;;24.11;37.75;102660.19;5079367;28;20404;-71
2022/07/06 04:01:03;;;;;;;3.35;1.60;;;;;;;24.14;37.25;102660.03;5074676;28;20774;-71
2022/07/06 04:03:28;;;;;;;1.98;0.70;;;;;;;24.35;36.98;102662.81;5087561;28;20052;-71
2022/07/06 04:05:54;;;;;;;1.90;0.60;;;;;;;24.36;37.05;102661.88;5071163;28;20032;-72
2022/07/06 04:08:19;;;;;;;2.45;0.68;;;;;;;24.26;37.09;102658.69;5072440;28;20079;-71
2022/07/06 04:10:45;;;;;;;3.53;0.75;;;;;;;24.50;37.05;102656.84;5072918;28;20059;-71
2022/07/06 04:13:10;;;;;;;1.85;0.60;;;;;;;24.74;36.47;102659.47;5076253;28;20024;-71
2022/07/06 04:15:36;;;;;;;7.78;0.82;;;;;;;25.15;35.93;102664.03;5092084;28;20028;-72
2022/07/06 04:18:01;;;;;;;2.38;0.88;;;;;;;24.81;36.58;102658.31;5080090;28;20028;-71
2022/07/06 04:20:26;;;;;;;1.90;0.63;;;;;;;25.06;36.79;102667.97;5086654;28;20111;-72
2022/07/06 04:22:52;;;;;;;2.30;0.70;;;;;;;25.21;36.41;102659.28;5091565;28;20024;-72
2022/07/06 04:25:18;;;;;;;4.15;0.63;;;;;;;25.41;35.72;102662.91;5092114;28;20012;-72
2022/07/06 04:27:44;;;;;;;0.93;0.60;;;;;;;25.28;36.41;102654.53;5080687;28;20115;-71
2022/07/06 04:30:10;;;;;;;2.28;1.35;;;;;;;25.11;36.16;102662.41;5083458;28;20060;-72
2022/07/06 04:32:36;;;;;;;2.05;0.90;;;;;;;25.16;36.04;102661.28;5076667;28;20755;-72
2022/07/06 04:35:02;;;;;;;2.42;0.68;;;;;;;25.17;36.11;102655.00;5085326;28;20411;-72
2022/07/06 04:37:28;;;;;;;2.25;0.68;;;;;;;24.67;36.54;102661.53;5082277;28;20032;-72
2022/07/06 04:39:53;;;;;;;4.10;0.90;;;;;;;24.78;36.42;102662.91;5089783;28;20020;-72
2022/07/06 04:42:18;;;;;;;3.22;0.70;;;;;;;24.95;36.42;102662.19;5074249;28;20514;-71
2022/07/06 04:44:45;;;;;;;1.85;0.70;;;;;;;24.99;36.20;102658.44;5091458;28;20480;-72
2022/07/06 04:47:11;;;;;;;1.92;0.90;;;;;;;24.89;36.69;102664.22;5090501;28;20028;-71
2022/07/06 04:49:36;;;;;;;3.80;0.70;;;;;;;24.57;36.95;102662.81;5081555;28;20526;-71
2022/07/06 04:52:02;;;;;;;2.00;0.80;;;;;;;24.89;36.17;102660.66;5086066;28;20372;-71
2022/07/06 04:54:27;;;;;;;0.95;0.60;;;;;;;24.64;36.37;102669.69;5077174;28;20020;-71
2022/07/06 04:56:52;;;;;;;4.60;1.10;;;;;;;24.83;36.30;102669.78;5075373;28;20020;-72
2022/07/06 04:59:18;;;;;;;1.65;0.75;;;;;;;24.43;37.48;102668.72;5073121;28;20024;-72
2022/07/06 05:01:43;;;;;;;3.70;0.77;;;;;;;25.19;36.25;102670.97;5071072;28;20026;-72
2022/07/06 05:04:08;;;;;;;2.40;0.70;;;;;;;25.17;35.88;102673.72;5087234;28;20403;-71
2022/07/06 05:06:34;;;;;;;5.00;0.70;;;;;;;24.98;36.75;102672.78;5071607;28;20496;-71
2022/07/06 05:09:00;;;;;;;2.03;0.68;;;;;;;24.45;37.76;102674.84;5069777;28;20032;-71
2022/07/06 05:11:26;;;;;;;2.17;0.88;;;;;;;25.29;36.04;102674.13;5071342;28;20103;-72
2022/07/06 05:13:52;;;;;;;4.43;1.40;;;;;;;25.84;35.03;102678.84;5088479;28;20031;-71
2022/07/06 05:16:17;;;;;;;1.50;0.70;;;;;;;25.06;36.36;102682.22;5088326;28;20028;-72
2022/07/06 05:18:42;;;;;;;1.55;0.85;;;;;;;24.30;37.88;102681.69;5086046;28;20028;-72
2022/07/06 05:21:08;;;;;;;1.67;0.90;;;;;;;25.34;36.26;102685.53;5072310;28;20029;-71
2022/07/06 05:23:33;;;;;;;1.77;0.90;;;;;;;25.28;35.57;102692.00;5081536;28;20387;-72
2022/07/06 05:25:59;;;;;;;1.05;0.63;;;;;;;24.80;36.83;102685.97;5076910;28;20040;-72
2022/07/06 05:28:24;;;;;;;0.95;0.77;;;;;;;25.43;35.57;102698.53;5072603;28;20107;-71
2022/07/06 05:30:49;;;;;;;2.13;0.68;;;;;;;25.64;35.10;102696.69;5091560;28;20101;-72
2022/07/06 05:33:15;;;;;;;2.05;0.70;;;;;;;25.75;35.14;102685.50;5090255;28;20027;-72
2022/07/06 05:35:40;;;;;;;1.60;0.60;;;;;;;24.60;36.83;102693.91;5081808;28;20026;-72
2022/07/06 05:38:05;;;;;;;1.95;0.50;;;;;;;24.74;35.87;102691.56;5078030;28;20029;-72
2022/07/06 05:40:30;;;;;;;1.05;0.75;;;;;;;24.93;36.01;102688.13;5070930;28;20043;-72
2022/07/06 05:42:56;;;;;;;1.25;0.57;;;;;;;24.75;36.45;102687.97;5072174;28;20040;-72
2022/07/06 05:45:22;;;;;;;1.05;0.70;;;;;;;25.03;35.82;102694.84;5071277;28;20021;-72
2022/07/06 05:50:31;;;;;;;1.08;0.60;;;;;;;25.19;35.88;102685.22;5078718;28;20090;-71
2022/07/06 05:53:02;;;;;;;5.50;0.90;;;;;;;25.68;34.58;102684.91;5070257;28;20472;-72
2022/07/06 05:55:28;;;;;;;4.18;0.60;;;;;;;25.87;34.65;102684.94;5071408;28;20058;-72
2022/07/06 05:57:55;;;;;;;1.08;0.70;;;;;;;25.19;35.96;102685.22;5086918;28;20035;-71
2022/07/06 06:00:22;;;;;;;2.15;1.20;;;;;;;24.95;35.98;102686.25;5070565;28;20020;-71
2022/07/06 06:02:47;;;;;;;4.45;0.60;;;;;;;25.07;35.87;102688.41;5072994;28;20028;-71
2022/07/06 06:05:14;;;;;;;2.47;0.63;;;;;;;25.56;35.39;102696.16;5071196;28;20498;-71
2022/07/06 06:07:40;;;;;;;1.33;0.60;;;;;;;24.04;38.17;102701.38;5079558;28;20065;-71
2022/07/06 06:10:13;;;;;;;2.05;0.55;;;;;;;24.66;36.47;102691.00;5089001;28;20035;-71
2022/07/06 06:12:38;;;;;;;;;;;;;;;24.89;36.35;102696.31;5084144;28;20024;-72
2022/07/06 06:15:04;;;;;;;1.00;0.50;;;;;;;25.23;35.04;102697.53;5085903;28;19926;-72
2022/07/06 06:17:30;;;;;;;0.90;0.47;;;;;;;25.45;35.31;102687.75;5071481;28;20024;-72
2022/07/06 06:19:56;;;;;;;1.02;0.50;;;;;;;25.68;34.26;102694.75;5071580;28;20058;-71
2022/07/06 06:22:22;;;;;;;1.38;0.57;;;;;;;25.62;34.96;102695.03;5070980;28;20495;-71
2022/07/06 06:24:47;;;;;;;7.78;0.55;;;;;;;27.77;31.89;102696.22;5080792;28;20024;-71
2022/07/06 06:27:13;;;;;;;1.23;0.40;;;;;;;28.39;29.68;102692.84;5081582;28;20047;-72
2022/07/06 06:29:38;;;;;;;1.20;0.45;;;;;;;29.37;27.74;102688.09;5073259;28;20035;-71
2022/07/06 06:32:05;;;;;;;1.33;0.50;;;;;;;31.30;26.25;102689.13;5075909;28;20435;-71
2022/07/06 06:34:31;;;;;;;0.20;0.20;;;;;;;30.16;25.88;102699.38;5072804;28;20392;-71
2022/07/06 06:36:56;;;;;;;4.40;0.60;;;;;;;30.90;25.23;102702.63;5071971;28;20020;-71
2022/07/06 06:39:21;;;;;;;0.55;0.30;;;;;;;30.43;25.96;102702.97;5070920;28;20032;-71
2022/07/06 06:41:47;;;;;;;1.27;0.50;;;;;;;32.39;24.53;102694.00;5072122;28;20067;-72
2022/07/06 06:44:12;;;;;;;1.10;0.30;;;;;;;32.36;23.69;102693.38;5043663;28;20017;-71
2022/07/06 06:46:38;;;;;;;0.90;0.35;;;;;;;32.49;23.43;102694.16;5038691;28;20472;-71
2022/07/06 06:49:03;;;;;;;1.58;0.47;;;;;;;33.14;22.75;102700.97;5071685;28;20020;-71
2022/07/06 06:51:29;;;;;;;3.90;0.30;;;;;;;33.21;22.45;102695.94;5038998;28;20396;-71
2022/07/06 06:53:54;;;;;;;2.78;0.40;;;;;;;34.23;21.83;102701.44;5037100;28;20473;-71
2022/07/06 06:56:19;;;;;;;0.10;0.10;;;;;;;35.02;20.69;102694.03;5035176;28;20556;-71
2022/07/06 06:58:44;;;;;;;3.30;0.43;;;;;;;34.12;21.24;102696.03;5032970;28;20036;-71
2022/07/06 07:01:10;;;;;;;2.08;0.40;;;;;;;34.07;21.64;102703.69;5050760;28;20059;-71
2022/07/06 07:03:35;;;;;;;1.90;0.40;;;;;;;36.42;19.31;102705.28;5064672;28;20060;-71
2022/07/06 07:06:01;;;;;;;1.35;0.20;;;;;;;35.60;19.72;102705.28;5042654;28;20396;-71
2022/07/06 07:08:26;;;;;;;0.45;0.45;;;;;;;35.20;19.63;102708.75;5040201;28;20059;-71
2022/07/06 07:10:52;;;;;;;1.75;0.38;;;;;;;33.68;22.69;102708.63;5056056;28;20032;-71
2022/07/06 07:13:17;;;;;;;0.38;0.28;;;;;;;35.95;19.67;102704.00;5052149;28;20036;-72
2022/07/06 07:15:42;;;;;;;1.98;0.52;;;;;;;35.63;19.14;102698.72;5040146;28;20025;-71
2022/07/06 07:18:08;;;;;;;0.73;0.38;;;;;;;34.59;19.99;102702.09;5035959;28;20569;-71
2022/07/06 07:20:33;;;;;;;0.95;0.30;;;;;;;35.48;19.99;102698.22;5034948;28;20033;-71
2022/07/06 07:22:59;;;;;;;0.30;0.30;;;;;;;36.18;19.55;102709.22;5038633;28;20518;-71
2022/07/06 07:25:25;;;;;;;1.63;0.38;;;;;;;34.83;19.24;102701.06;5033653;28;20120;-72
2022/07/06 07:27:51;;;;;;;0.47;0.40;;;;;;;35.49;19.63;102710.81;5062229;28;20504;-71
2022/07/06 07:30:16;;;;;;;0.68;0.20;;;;;;;35.61;19.11;102701.56;5041748;28;20098;-72
2022/07/06 07:32:42;;;;;;;0.85;0.20;;;;;;;33.36;20.47;102693.91;5039714;28;20490;-70
2022/07/06 07:35:08;;;;;;;1.23;0.20;;;;;;;36.23;18.67;102706.06;5039296;28;20024;-71
2022/07/06 07:37:33;;;;;;;0.35;0.15;;;;;;;35.77;18.47;102702.91;5039771;28;20515;-71
2022/07/06 07:39:59;;;;;;;1.00;0.30;;;;;;;35.56;19.21;102702.94;5054428;28;20107;-71
2022/07/06 07:42:24;;;;;;;0.60;0.30;;;;;;;35.04;19.68;102701.06;5060803;28;20060;-71
2022/07/06 07:44:49;;;;;;;1.55;0.30;;;;;;;34.96;19.50;102699.00;5050444;28;20029;-71
2022/07/06 07:47:15;;;;;;;0.88;0.20;;;;;;;36.26;19.48;102709.38;5043316;28;20102;-71
2022/07/06 07:49:41;;;;;;;0.93;0.50;;;;;;;37.18;16.33;102696.38;5042480;28;20058;-71
2022/07/06 07:52:08;;;;;;;0.20;0.20;;;;;;;37.33;16.70;102700.38;5045831;28;20075;-71
2022/07/06 07:54:33;;;;;;;1.70;0.17;;;;;;;37.16;17.26;102695.66;5037786;28;20117;-71
2022/07/06 07:56:59;;;;;;;1.65;0.30;;;;;;;35.57;17.08;102694.69;5055122;28;20035;-71
2022/07/06 07:59:24;;;;;;;0.80;0.30;;;;;;;37.45;15.80;102694.75;5074397;28;20078;-72
2022/07/06 08:01:50;;;;;;;1.52;0.40;;;;;;;36.58;16.22;102693.84;5074379;28;20034;-73
2022/07/06 08:04:15;;;;;;;1.25;0.60;;;;;;;37.17;16.34;102689.19;5049710;28;20025;-71
2022/07/06 08:06:40;;;;;;;2.33;0.40;;;;;;;37.23;17.04;102685.88;5053253;28;20043;-72
2022/07/06 08:09:07;;;;;;;1.10;0.70;;;;;;;36.65;17.75;102679.47;5056408;28;20029;-71
2022/07/06 08:11:33;;;;;;;1.20;0.22;;;;;;;35.99;16.89;102689.13;5073637;28;20024;-71
2022/07/06 08:13:59;;;;;;;3.50;1.10;;;;;;;37.04;15.48;102685.94;5058688;28;20029;-71
2022/07/06 08:16:25;;;;;;;1.13;0.20;;;;;;;35.82;17.48;102684.38;5037126;28;20067;-71
2022/07/06 08:18:50;;;;;;;1.50;0.68;;;;;;;36.34;16.83;102692.34;5047500;28;20382;-71
2022/07/06 08:21:16;;;;;;;5.07;0.40;;;;;;;36.71;15.32;102682.63;5035509;28;20020;-71
2022/07/06 08:23:41;;;;;;;0.80;0.20;;;;;;;35.62;16.06;102692.38;5061428;28;20017;-71
2022/07/06 08:26:07;;;;;;;2.70;0.57;;;;;;;35.69;16.84;102691.84;5050640;28;20033;-71
2022/07/06 08:28:32;;;;;;;1.17;0.30;;;;;;;35.90;15.05;102683.66;5035005;28;20028;-71
2022/07/06 08:30:57;;;;;;;1.25;0.30;;;;;;;35.10;16.04;102686.06;5035493;28;20392;-71
2022/07/06 08:33:23;;;;;;;0.20;0.20;;;;;;;35.69;16.07;102680.97;5054916;28;20450;-71
2022/07/06 08:35:49;;;;;;;0.65;0.30;;;;;;;35.41;17.61;102678.00;5035764;28;20079;-71
2022/07/06 08:38:14;;;;;;;1.00;0.10;;;;;;;35.78;17.25;102680.16;5050710;28;20476;-71
2022/07/06 08:40:40;;;;;;;0.40;0.20;;;;;;;34.64;17.24;102678.13;5054702;28;20040;-71
2022/07/06 08:43:06;;;;;;;0.82;0.17;;;;;;;32.91;19.03;102680.25;5069598;28;20424;-71
2022/07/06 08:45:34;;;;;;;2.58;0.30;;;;;;;32.96;19.32;102681.59;5072606;28;20062;-71
2022/07/06 08:48:04;;;;;;;0.30;0.10;;;;;;;32.01;20.71;102683.25;5071834;28;20132;-71
2022/07/06 08:50:30;;;;;;;0.20;0.20;;;;;;;31.20;20.41;102688.91;5070972;28;20047;-71
2022/07/06 08:52:56;;;;;;;2.65;0.30;;;;;;;32.68;21.26;102677.41;5071069;28;20048;-71
2022/07/06 08:55:21;;;;;;;1.50;0.15;;;;;;;30.65;20.63;102681.84;5080650;28;20032;-71
2022/07/06 08:57:47;;;;;;;1.17;0.25;;;;;;;31.92;20.19;102680.25;5071455;28;20024;-72
2022/07/06 09:00:13;;;;;;;2.78;0.40;;;;;;;32.67;21.85;102674.81;5081237;28;20025;-71
2022/07/06 09:02:40;;;;;;;4.88;0.20;;;;;;;30.62;21.21;102678.38;5071914;28;20037;-71
2022/07/06 09:05:07;;;;;;;0.85;0.30;;;;;;;30.28;21.21;102674.28;5071909;28;20039;-71
2022/07/06 09:07:33;;;;;;;0.43;0.20;;;;;;;31.77;21.62;102679.53;5077214;28;20024;-71
2022/07/06 09:09:59;;;;;;;0.30;0.20;;;;;;;31.15;20.13;102680.25;5084164;28;20035;-71
2022/07/06 09:12:29;;;;;;;1.52;0.20;;;;;;;30.40;20.52;102676.19;5091906;28;20039;-71
2022/07/06 09:14:58;;;;;;;1.95;0.38;;;;;;;31.27;20.34;102684.81;5091285;28;20127;-70
2022/07/06 09:17:28;;;;;;;0.35;0.25;;;;;;;30.25;20.56;102678.09;5091998;28;20024;-71
2022/07/06 09:19:54;;;;;;;2.42;0.20;;;;;;;32.39;21.09;102672.34;5083104;28;20047;-71
2022/07/06 09:22:31;;;;;;;1.38;0.30;;;;;;;31.07;19.70;102677.22;5072365;28;20119;-71
2022/07/06 09:25:17;;;;;;;0.90;0.40;;;;;;;31.18;20.17;102680.03;5071432;28;20021;-71
2022/07/06 09:27:49;;;;;;;0.10;0.10;;;;;;;32.34;20.42;102676.38;5070182;28;20063;-71
2022/07/06 09:30:16;;;;;;;2.20;0.20;;;;;;;33.31;19.59;102678.00;5072791;28;20024;-71
2022/07/06 09:32:43;;;;;;;0.70;0.47;;;;;;;34.69;17.24;102672.31;5070231;28;20119;-71
2022/07/06 09:35:22;;;;;;;1.63;0.30;;;;;;;33.76;17.85;102676.31;5071929;28;20163;-71
2022/07/06 09:37:59;;;;;;;2.08;0.30;;;;;;;33.14;19.45;102687.44;5071241;28;20046;-71
2022/07/06 09:40:24;;;;;;;3.60;0.30;;;;;;;34.10;19.63;102688.03;5072483;28;20079;-71
2022/07/06 09:42:49;;;;;;;1.48;0.25;;;;;;;33.46;18.61;102688.63;5072288;28;20057;-71
2022/07/06 09:45:20;;;;;;;0.68;0.20;;;;;;;34.55;18.82;102691.63;5072655;28;20099;-71
2022/07/06 09:47:47;;;;;;;1.20;0.40;;;;;;;33.86;18.66;102699.00;5071262;28;20021;-71
2022/07/06 09:50:15;;;;;;;2.53;0.30;;;;;;;34.21;19.00;102695.28;5070312;28;20032;-71
2022/07/06 09:52:40;;;;;;;1.90;0.40;;;;;;;33.97;17.65;102699.00;5070442;28;20078;-71
2022/07/06 09:55:15;;;;;;;1.17;0.30;;;;;;;35.24;17.48;102699.34;5071578;28;20036;-71
2022/07/06 09:57:52;;;;;;;0.57;0.22;;;;;;;35.13;17.54;102691.22;5070385;28;20021;-71
2022/07/06 10:00:19;;;;;;;1.88;0.55;;;;;;;34.20;18.65;102698.97;5072333;28;20028;-71
2022/07/06 10:02:46;;;;;;;0.68;0.30;;;;;;;31.46;19.00;102702.41;5078715;28;20152;-71
2022/07/06 10:05:13;;;;;;;3.20;0.50;;;;;;;32.43;19.36;102695.50;5091176;28;20020;-71
2022/07/06 10:07:39;;;;;;;1.92;0.57;;;;;;;34.17;19.55;102688.38;5083985;28;20021;-71
2022/07/06 10:10:05;;;;;;;1.02;0.40;;;;;;;34.71;18.30;102686.63;5069856;28;20024;-71
2022/07/06 10:12:31;;;;;;;1.67;0.30;;;;;;;34.29;18.52;102679.25;5075655;28;20024;-72
2022/07/06 10:14:57;;;;;;;2.58;0.57;;;;;;;35.09;17.71;102678.91;5081197;28;20499;-71
2022/07/06 10:17:23;;;;;;;0.50;0.30;;;;;;;34.84;18.07;102672.88;5070045;28;20028;-71
2022/07/06 10:19:50;;;;;;;2.42;0.55;;;;;;;35.06;16.76;102679.19;5070388;28;20035;-71
2022/07/06 10:22:17;;;;;;;0.73;0.47;;;;;;;33.19;19.48;102688.94;5073182;28;20024;-71
2022/07/06 10:24:43;;;;;;;0.45;0.30;;;;;;;32.45;18.78;102681.84;5081577;28;20017;-71
2022/07/06 10:27:10;;;;;;;1.02;0.40;;;;;;;34.41;18.75;102687.38;5087599;28;20020;-71
2022/07/06 10:29:36;;;;;;;2.83;0.63;;;;;;;33.87;18.02;102687.19;5070619;28;20476;-71
2022/07/06 10:32:02;;;;;;;1.45;0.38;;;;;;;35.03;16.85;102676.75;5077908;28;20043;-71
2022/07/06 10:34:27;;;;;;;3.13;0.30;;;;;;;34.84;16.77;102681.03;5069580;28;20028;-71
2022/07/06 10:36:54;;;;;;;0.20;0.20;;;;;;;36.19;17.25;102667.41;5080956;28;20027;-71
2022/07/06 10:42:40;;;;;;;2.83;0.82;;;;;;;36.45;16.35;102667.75;5078966;28;20075;-71
2022/07/06 10:45:06;;;;;;;3.55;0.88;;;;;;;35.33;18.14;102671.38;5041942;28;20075;-72
2022/07/06 10:47:32;;;;;;;0.75;0.50;;;;;;;33.35;18.16;102675.06;5053716;28;20032;-71
2022/07/06 10:50:01;;;;;;;1.63;0.50;;;;;;;36.29;16.87;102673.72;5053726;28;20055;-71
2022/07/06 10:52:58;;;;;;;2.88;0.80;;;;;;;33.33;18.64;102675.16;5049282;28;20102;-72
2022/07/06 10:55:31;;;;;;;1.92;0.32;;;;;;;34.40;17.25;102683.75;5058994;28;20150;-71
2022/07/06 10:57:56;;;;;;;2.03;0.55;;;;;;;35.61;16.57;102679.81;5053651;28;20113;-71
2022/07/06 11:00:21;;;;;;;1.42;0.60;;;;;;;36.41;17.28;102665.44;5053058;28;20063;-71
2022/07/06 11:02:47;;;;;;;1.08;0.38;;;;;;;36.39;16.35;102662.00;5071792;28;20025;-71
2022/07/06 11:05:41;;;;;;;2.13;0.70;;;;;;;34.75;17.23;102669.09;5054862;28;20020;-76
2022/07/06 11:08:10;;;;;;;4.25;0.60;;;;;;;35.96;15.78;102662.19;5049433;28;20025;-71
2022/07/06 11:10:48;;;;;;;0.52;0.52;;;;;;;36.62;16.62;102641.66;5037553;28;20086;-71
2022/07/06 11:13:27;;;;;;;1.67;0.47;;;;;;;33.64;17.80;102643.78;5054554;28;20032;-71
2022/07/06 11:16:04;;;;;;;5.03;0.60;;;;;;;35.41;17.69;102645.38;5066383;28;20058;-71
2022/07/06 11:18:40;;;;;;;2.65;0.50;;;;;;;35.00;16.82;102643.41;5040665;28;20074;-71
2022/07/06 11:21:16;;;;;;;2.30;0.60;;;;;;;35.19;18.33;102636.38;5052754;28;20119;-71
2022/07/06 11:23:42;;;;;;;1.85;0.60;;;;;;;34.79;17.60;102639.81;5056053;28;20313;-70
2022/07/06 11:26:10;;;;;;;4.30;0.50;;;;;;;36.08;16.85;102637.59;5047537;28;20039;-71
2022/07/06 11:28:36;;;;;;;1.98;0.63;;;;;;;34.24;18.47;102629.91;5037695;28;20036;-71
2022/07/06 11:31:02;;;;;;;1.77;0.60;;;;;;;33.18;18.58;102625.78;5057092;28;20020;-71